sensor_id;sensor_type;location;lat;lon;timestamp;pressure;altitude;pressure_sealevel;temperature;humidity
69239;BME280;56349;51.816;-0.026;2023-06-19T00:00:40;100194.46;;;27.93;33.69
69239;BME280;56349;51.816;-0.026;2023-06-19T00:03:06;100200.18;;;27.89;33.74
69239;BME280;56349;51.816;-0.026;2023-06-19T00:05:32;100204.60;;;27.84;33.79
69239;BME280;56349;51.816;-0.026;2023-06-19T00:07:58;100207.06;;;27.79;33.85
69239;BME280;56349;51.816;-0.026;2023-06-19T00:10:24;100207.91;;;27.97;33.89
69239;BME280;56349;51.816;-0.026;2023-06-19T00:12:49;100209.90;;;27.93;33.94
69239;BME280;56349;51.816;-0.026;2023-06-19T00:15:15;100208.43;;;27.90;33.97
69239;BME280;56349;51.816;-0.026;2023-06-19T00:17:41;100207.71;;;27.89;33.98
69239;BME280;56349;51.816;-0.026;2023-06-19T00:20:08;100209.03;;;27.66;33.98
69239;BME280;56349;51.816;-0.026;2023-06-19T00:22:33;100213.14;;;27.86;34.00
69239;BME280;56349;51.816;-0.026;2023-06-19T00:25:00;100210.83;;;27.59;34.02
69239;BME280;56349;51.816;-0.026;2023-06-19T00:27:24;100211.38;;;27.78;34.05
69239;BME280;56349;51.816;-0.026;2023-06-19T00:29:50;100211.55;;;27.73;34.11
69239;BME280;56349;51.816;-0.026;2023-06-19T00:32:16;100216.91;;;27.68;34.16
69239;BME280;56349;51.816;-0.026;2023-06-19T00:34:42;100228.92;;;27.65;34.19
69239;BME280;56349;51.816;-0.026;2023-06-19T00:37:09;100226.42;;;27.64;34.20
69239;BME280;56349;51.816;-0.026;2023-06-19T00:39:33;100222.89;;;27.64;34.20
69239;BME280;56349;51.816;-0.026;2023-06-19T00:41:59;100220.75;;;27.61;34.21
69239;BME280;56349;51.816;-0.026;2023-06-19T00:44:25;100218.47;;;27.83;34.25
69239;BME280;56349;51.816;-0.026;2023-06-19T00:46:59;100216.28;;;27.79;34.29
69239;BME280;56349;51.816;-0.026;2023-06-19T00:49:17;100217.46;;;27.49;34.32
69239;BME280;56349;51.816;-0.026;2023-06-19T00:51:42;100209.79;;;27.47;34.35
69239;BME280;56349;51.816;-0.026;2023-06-19T00:54:08;100210.58;;;27.46;34.35
69239;BME280;56349;51.816;-0.026;2023-06-19T00:56:33;100209.22;;;27.93;34.37
69239;BME280;56349;51.816;-0.026;2023-06-19T00:58:59;100205.18;;;27.39;34.41
69239;BME280;56349;51.816;-0.026;2023-06-19T01:01:25;100202.90;;;27.37;34.45
69239;BME280;56349;51.816;-0.026;2023-06-19T01:03:50;100201.75;;;27.34;34.47
69239;BME280;56349;51.816;-0.026;2023-06-19T01:06:22;100205.16;;;27.32;34.48
69239;BME280;56349;51.816;-0.026;2023-06-19T01:08:47;100206.23;;;27.30;34.51
69239;BME280;56349;51.816;-0.026;2023-06-19T01:11:07;100204.41;;;27.29;34.51
69239;BME280;56349;51.816;-0.026;2023-06-19T01:13:37;100207.00;;;27.29;34.50
69239;BME280;56349;51.816;-0.026;2023-06-19T01:15:58;100208.64;;;27.54;34.50
69239;BME280;56349;51.816;-0.026;2023-06-19T01:18:24;100210.39;;;27.26;34.50
69239;BME280;56349;51.816;-0.026;2023-06-19T01:20:50;100208.68;;;27.23;34.52
69239;BME280;56349;51.816;-0.026;2023-06-19T01:23:16;100206.59;;;27.47;34.54
69239;BME280;56349;51.816;-0.026;2023-06-19T01:25:41;100207.73;;;27.19;34.54
69239;BME280;56349;51.816;-0.026;2023-06-19T01:28:09;100207.99;;;27.44;34.56
69239;BME280;56349;51.816;-0.026;2023-06-19T01:30:33;100206.36;;;27.64;34.57
69239;BME280;56349;51.816;-0.026;2023-06-19T01:33:03;100206.39;;;27.62;34.58
69239;BME280;56349;51.816;-0.026;2023-06-19T01:35:27;100203.16;;;27.12;34.58
69239;BME280;56349;51.816;-0.026;2023-06-19T01:37:50;100208.14;;;27.12;34.55
69239;BME280;56349;51.816;-0.026;2023-06-19T01:40:15;100208.55;;;27.10;34.54
69239;BME280;56349;51.816;-0.026;2023-06-19T01:42:41;100212.08;;;27.07;34.58
69239;BME280;56349;51.816;-0.026;2023-06-19T01:45:07;100216.50;;;27.05;34.60
69239;BME280;56349;51.816;-0.026;2023-06-19T01:47:31;100217.41;;;27.03;34.61
69239;BME280;56349;51.816;-0.026;2023-06-19T01:49:57;100218.44;;;27.28;34.62
69239;BME280;56349;51.816;-0.026;2023-06-19T01:52:24;100219.26;;;27.25;34.61
69239;BME280;56349;51.816;-0.026;2023-06-19T01:54:49;100221.97;;;27.22;34.63
69239;BME280;56349;51.816;-0.026;2023-06-19T01:57:14;100227.51;;;27.20;34.64
69239;BME280;56349;51.816;-0.026;2023-06-19T01:59:40;100232.86;;;27.39;34.66
69239;BME280;56349;51.816;-0.026;2023-06-19T02:02:06;100231.51;;;27.15;34.65
69239;BME280;56349;51.816;-0.026;2023-06-19T02:04:32;100229.10;;;27.14;34.67
69239;BME280;56349;51.816;-0.026;2023-06-19T02:06:57;100225.98;;;26.84;34.69
69239;BME280;56349;51.816;-0.026;2023-06-19T02:09:23;100223.38;;;27.10;34.71
69239;BME280;56349;51.816;-0.026;2023-06-19T02:11:49;100223.94;;;27.10;34.68
69239;BME280;56349;51.816;-0.026;2023-06-19T02:14:15;100226.79;;;27.31;34.68
69239;BME280;56349;51.816;-0.026;2023-06-19T02:16:41;100230.78;;;27.08;34.68
69239;BME280;56349;51.816;-0.026;2023-06-19T02:19:07;100236.77;;;26.81;34.66
69239;BME280;56349;51.816;-0.026;2023-06-19T02:21:33;100239.08;;;27.07;34.67
69239;BME280;56349;51.816;-0.026;2023-06-19T02:23:59;100242.88;;;26.78;34.71
69239;BME280;56349;51.816;-0.026;2023-06-19T02:26:25;100241.85;;;27.24;34.74
69239;BME280;56349;51.816;-0.026;2023-06-19T02:28:51;100241.31;;;27.22;34.74
69239;BME280;56349;51.816;-0.026;2023-06-19T02:31:17;100244.09;;;26.98;34.76
69239;BME280;56349;51.816;-0.026;2023-06-19T02:33:43;100246.78;;;27.20;34.75
69239;BME280;56349;51.816;-0.026;2023-06-19T02:36:09;100247.37;;;26.96;34.73
69239;BME280;56349;51.816;-0.026;2023-06-19T02:38:35;100252.56;;;26.95;34.76
69239;BME280;56349;51.816;-0.026;2023-06-19T02:41:01;100252.64;;;27.17;34.74
69239;BME280;56349;51.816;-0.026;2023-06-19T02:43:27;100258.65;;;27.15;34.76
69239;BME280;56349;51.816;-0.026;2023-06-19T02:45:53;100262.85;;;27.14;34.75
69239;BME280;56349;51.816;-0.026;2023-06-19T02:48:19;100264.58;;;27.13;34.75
69239;BME280;56349;51.816;-0.026;2023-06-19T02:50:45;100264.06;;;26.90;34.77
69239;BME280;56349;51.816;-0.026;2023-06-19T02:53:11;100265.38;;;27.12;34.75
69239;BME280;56349;51.816;-0.026;2023-06-19T02:55:37;100267.04;;;26.88;34.75
69239;BME280;56349;51.816;-0.026;2023-06-19T02:58:02;100266.61;;;27.07;34.75
69239;BME280;56349;51.816;-0.026;2023-06-19T03:00:29;100269.40;;;27.04;34.79
69239;BME280;56349;51.816;-0.026;2023-06-19T03:02:54;100271.16;;;26.79;34.80
69239;BME280;56349;51.816;-0.026;2023-06-19T03:05:20;100274.09;;;27.00;34.81
69239;BME280;56349;51.816;-0.026;2023-06-19T03:07:46;100281.77;;;26.77;34.80
69239;BME280;56349;51.816;-0.026;2023-06-19T03:10:12;100283.25;;;26.97;34.83
69239;BME280;56349;51.816;-0.026;2023-06-19T03:12:38;100286.20;;;26.95;34.83
69239;BME280;56349;51.816;-0.026;2023-06-19T03:15:05;100292.92;;;26.73;34.82
69239;BME280;56349;51.816;-0.026;2023-06-19T03:17:30;100292.25;;;26.94;34.82
69239;BME280;56349;51.816;-0.026;2023-06-19T03:19:56;100294.22;;;26.70;34.82
69239;BME280;56349;51.816;-0.026;2023-06-19T03:22:22;100294.45;;;26.90;34.83
69239;BME280;56349;51.816;-0.026;2023-06-19T03:24:48;100296.03;;;26.89;34.84
69239;BME280;56349;51.816;-0.026;2023-06-19T03:27:14;100298.25;;;26.39;34.85
69239;BME280;56349;51.816;-0.026;2023-06-19T03:29:40;100306.07;;;26.65;34.85
69239;BME280;56349;51.816;-0.026;2023-06-19T03:32:07;100316.52;;;26.65;34.89
69239;BME280;56349;51.816;-0.026;2023-06-19T03:34:32;100317.41;;;26.89;34.91
69239;BME280;56349;51.816;-0.026;2023-06-19T03:36:57;100321.75;;;26.95;34.90
69239;BME280;56349;51.816;-0.026;2023-06-19T03:39:24;100323.07;;;26.59;34.90
69239;BME280;56349;51.816;-0.026;2023-06-19T03:41:49;100328.88;;;27.02;34.84
69239;BME280;56349;51.816;-0.026;2023-06-19T03:44:15;100335.61;;;26.95;34.70
69239;BME280;56349;51.816;-0.026;2023-06-19T03:46:40;100338.96;;;27.14;34.50
69239;BME280;56349;51.816;-0.026;2023-06-19T03:49:06;100338.49;;;27.32;34.27
69239;BME280;56349;51.816;-0.026;2023-06-19T03:51:33;100339.65;;;27.48;34.05
69239;BME280;56349;51.816;-0.026;2023-06-19T03:53:59;100339.31;;;27.58;33.86
69239;BME280;56349;51.816;-0.026;2023-06-19T03:56:24;100339.79;;;27.66;33.68
69239;BME280;56349;51.816;-0.026;2023-06-19T03:58:50;100343.28;;;27.69;33.55
69239;BME280;56349;51.816;-0.026;2023-06-19T04:01:16;100345.92;;;27.70;33.46
69239;BME280;56349;51.816;-0.026;2023-06-19T04:03:42;100348.02;;;27.69;33.40
69239;BME280;56349;51.816;-0.026;2023-06-19T04:06:09;100351.27;;;27.65;33.37
69239;BME280;56349;51.816;-0.026;2023-06-19T04:08:35;100357.78;;;27.60;33.37
69239;BME280;56349;51.816;-0.026;2023-06-19T04:11:01;100362.60;;;27.55;33.38
69239;BME280;56349;51.816;-0.026;2023-06-19T04:13:27;100362.28;;;27.48;33.39
69239;BME280;56349;51.816;-0.026;2023-06-19T04:15:53;100364.32;;;27.68;33.45
69239;BME280;56349;51.816;-0.026;2023-06-19T04:18:19;100364.99;;;27.34;33.42
69239;BME280;56349;51.816;-0.026;2023-06-19T04:20:45;100370.75;;;27.54;33.43
69239;BME280;56349;51.816;-0.026;2023-06-19T04:23:11;100373.13;;;27.20;33.47
69239;BME280;56349;51.816;-0.026;2023-06-19T04:25:37;100376.50;;;27.39;33.62
69239;BME280;56349;51.816;-0.026;2023-06-19T04:28:02;100377.35;;;27.55;33.64
69239;BME280;56349;51.816;-0.026;2023-06-19T04:30:28;100382.39;;;27.26;33.66
69239;BME280;56349;51.816;-0.026;2023-06-19T04:32:54;100389.28;;;27.20;33.71
69239;BME280;56349;51.816;-0.026;2023-06-19T04:35:20;100393.47;;;27.14;33.77
69239;BME280;56349;51.816;-0.026;2023-06-19T04:37:46;100393.02;;;27.08;33.87
69239;BME280;56349;51.816;-0.026;2023-06-19T04:40:12;100394.08;;;27.03;33.91
69239;BME280;56349;51.816;-0.026;2023-06-19T04:42:38;100394.53;;;26.98;33.98
69239;BME280;56349;51.816;-0.026;2023-06-19T04:45:05;100397.40;;;26.94;34.00
69239;BME280;56349;51.816;-0.026;2023-06-19T04:47:30;100399.35;;;26.88;34.02
69239;BME280;56349;51.816;-0.026;2023-06-19T04:49:56;100397.63;;;26.84;34.08
69239;BME280;56349;51.816;-0.026;2023-06-19T04:52:22;100398.97;;;26.79;34.09
69239;BME280;56349;51.816;-0.026;2023-06-19T04:54:48;100402.70;;;26.77;34.11
69239;BME280;56349;51.816;-0.026;2023-06-19T04:57:14;100400.91;;;26.95;34.13
69239;BME280;56349;51.816;-0.026;2023-06-19T04:59:42;100402.89;;;26.69;34.16
69239;BME280;56349;51.816;-0.026;2023-06-19T05:02:05;100407.66;;;26.88;34.19
69239;BME280;56349;51.816;-0.026;2023-06-19T05:04:31;100409.13;;;26.88;34.18
69239;BME280;56349;51.816;-0.026;2023-06-19T05:06:57;100410.01;;;26.83;34.23
69239;BME280;56349;51.816;-0.026;2023-06-19T05:09:23;100417.82;;;26.79;34.30
69239;BME280;56349;51.816;-0.026;2023-06-19T05:11:49;100423.36;;;26.78;34.32
69239;BME280;56349;51.816;-0.026;2023-06-19T05:14:15;100429.11;;;26.53;34.32
69239;BME280;56349;51.816;-0.026;2023-06-19T05:16:40;100428.98;;;26.73;34.35
69239;BME280;56349;51.816;-0.026;2023-06-19T05:19:06;100427.35;;;26.70;34.37
69239;BME280;56349;51.816;-0.026;2023-06-19T05:21:32;100427.31;;;26.68;34.41
69239;BME280;56349;51.816;-0.026;2023-06-19T05:23:58;100428.44;;;26.65;34.43
69239;BME280;56349;51.816;-0.026;2023-06-19T05:26:24;100427.06;;;26.42;34.43
69239;BME280;56349;51.816;-0.026;2023-06-19T05:28:50;100426.63;;;26.85;34.44
69239;BME280;56349;51.816;-0.026;2023-06-19T05:31:16;100429.42;;;26.59;34.47
69239;BME280;56349;51.816;-0.026;2023-06-19T05:33:42;100426.82;;;26.56;34.50
69239;BME280;56349;51.816;-0.026;2023-06-19T05:36:08;100419.12;;;26.75;34.53
69239;BME280;56349;51.816;-0.026;2023-06-19T05:38:34;100418.30;;;26.73;34.55
69239;BME280;56349;51.816;-0.026;2023-06-19T05:41:01;100420.95;;;26.51;34.57
69239;BME280;56349;51.816;-0.026;2023-06-19T05:43:27;100420.88;;;26.51;34.54
69239;BME280;56349;51.816;-0.026;2023-06-19T05:45:53;100421.84;;;26.53;34.50
69239;BME280;56349;51.816;-0.026;2023-06-19T05:48:17;100424.57;;;26.49;34.55
69239;BME280;56349;51.816;-0.026;2023-06-19T05:50:43;100426.16;;;26.66;34.58
69239;BME280;56349;51.816;-0.026;2023-06-19T05:53:09;100431.73;;;26.64;34.61
69239;BME280;56349;51.816;-0.026;2023-06-19T05:55:35;100433.94;;;26.62;34.62
69239;BME280;56349;51.816;-0.026;2023-06-19T05:58:02;100436.95;;;26.60;34.64
69239;BME280;56349;51.816;-0.026;2023-06-19T06:00:27;100437.76;;;26.36;34.65
69239;BME280;56349;51.816;-0.026;2023-06-19T06:02:53;100442.28;;;26.57;34.68
69239;BME280;56349;51.816;-0.026;2023-06-19T06:05:19;100441.96;;;26.33;34.69
69239;BME280;56349;51.816;-0.026;2023-06-19T06:07:45;100444.43;;;26.55;34.68
69239;BME280;56349;51.816;-0.026;2023-06-19T06:10:11;100446.23;;;26.56;34.69
69239;BME280;56349;51.816;-0.026;2023-06-19T06:12:36;100443.27;;;26.56;34.68
69239;BME280;56349;51.816;-0.026;2023-06-19T06:15:01;100447.47;;;26.34;34.67
69239;BME280;56349;51.816;-0.026;2023-06-19T06:17:27;100447.52;;;26.33;34.68
69239;BME280;56349;51.816;-0.026;2023-06-19T06:19:53;100449.85;;;26.32;34.68
69239;BME280;56349;51.816;-0.026;2023-06-19T06:22:19;100455.41;;;26.30;34.69
69239;BME280;56349;51.816;-0.026;2023-06-19T06:24:45;100455.91;;;26.30;34.70
69239;BME280;56349;51.816;-0.026;2023-06-19T06:27:11;100460.41;;;26.52;34.76
69239;BME280;56349;51.816;-0.026;2023-06-19T06:29:37;100463.32;;;26.32;34.81
69239;BME280;56349;51.816;-0.026;2023-06-19T06:32:04;100459.79;;;26.36;34.97
69239;BME280;56349;51.816;-0.026;2023-06-19T06:34:29;100464.39;;;26.44;35.21
69239;BME280;56349;51.816;-0.026;2023-06-19T06:36:55;100462.20;;;26.56;35.60
69239;BME280;56349;51.816;-0.026;2023-06-19T06:39:21;100463.71;;;26.74;35.88
69239;BME280;56349;51.816;-0.026;2023-06-19T06:41:46;100467.96;;;26.97;36.16
69239;BME280;56349;51.816;-0.026;2023-06-19T06:44:13;100466.51;;;27.25;35.98
69239;BME280;56349;51.816;-0.026;2023-06-19T06:46:38;100470.90;;;27.57;35.99
69239;BME280;56349;51.816;-0.026;2023-06-19T06:49:04;100477.56;;;27.41;35.70
69239;BME280;56349;51.816;-0.026;2023-06-19T06:51:30;100481.31;;;27.76;35.57
69239;BME280;56349;51.816;-0.026;2023-06-19T06:53:56;100480.15;;;28.12;35.27
69239;BME280;56349;51.816;-0.026;2023-06-19T06:56:22;100476.87;;;27.97;34.97
69239;BME280;56349;51.816;-0.026;2023-06-19T06:58:48;100473.85;;;28.31;34.64
69239;BME280;56349;51.816;-0.026;2023-06-19T07:01:14;100476.30;;;28.63;34.26
69239;BME280;56349;51.816;-0.026;2023-06-19T07:03:40;100474.43;;;28.71;33.79
69239;BME280;56349;51.816;-0.026;2023-06-19T07:06:06;100477.96;;;28.99;33.38
69239;BME280;56349;51.816;-0.026;2023-06-19T07:08:32;100475.27;;;29.05;32.98
69239;BME280;56349;51.816;-0.026;2023-06-19T07:10:58;100472.38;;;29.32;32.62
69239;BME280;56349;51.816;-0.026;2023-06-19T07:13:25;100474.11;;;29.55;32.33
69239;BME280;56349;51.816;-0.026;2023-06-19T07:15:49;100482.36;;;29.79;31.99
69239;BME280;56349;51.816;-0.026;2023-06-19T07:18:15;100481.89;;;29.99;31.68
69239;BME280;56349;51.816;-0.026;2023-06-19T07:20:41;100479.22;;;29.70;31.40
69239;BME280;56349;51.816;-0.026;2023-06-19T07:23:08;100478.63;;;30.12;31.14
69239;BME280;56349;51.816;-0.026;2023-06-19T07:25:33;100479.87;;;30.06;30.90
69239;BME280;56349;51.816;-0.026;2023-06-19T07:27:59;100483.76;;;30.24;30.65
69239;BME280;56349;51.816;-0.026;2023-06-19T07:30:25;100480.56;;;30.38;30.45
69239;BME280;56349;51.816;-0.026;2023-06-19T07:32:51;100482.54;;;30.51;30.25
69239;BME280;56349;51.816;-0.026;2023-06-19T07:35:17;100486.39;;;30.64;30.04
69239;BME280;56349;51.816;-0.026;2023-06-19T07:37:43;100485.62;;;30.78;29.80
69239;BME280;56349;51.816;-0.026;2023-06-19T07:40:09;100486.83;;;30.88;29.64
69239;BME280;56349;51.816;-0.026;2023-06-19T07:42:34;100491.54;;;30.49;29.48
69239;BME280;56349;51.816;-0.026;2023-06-19T07:45:00;100496.62;;;30.63;29.28
69239;BME280;56349;51.816;-0.026;2023-06-19T07:47:27;100493.82;;;30.75;29.09
69239;BME280;56349;51.816;-0.026;2023-06-19T07:49:51;100495.18;;;30.82;28.95
69239;BME280;56349;51.816;-0.026;2023-06-19T07:52:19;100494.55;;;30.88;28.80
69239;BME280;56349;51.816;-0.026;2023-06-19T07:54:50;100494.06;;;30.95;28.74
69239;BME280;56349;51.816;-0.026;2023-06-19T07:57:09;100492.85;;;31.23;28.66
69239;BME280;56349;51.816;-0.026;2023-06-19T07:59:35;100491.75;;;31.54;28.57
69239;BME280;56349;51.816;-0.026;2023-06-19T08:02:01;100489.32;;;31.11;28.48
69239;BME280;56349;51.816;-0.026;2023-06-19T08:04:27;100490.25;;;31.12;28.34
69239;BME280;56349;51.816;-0.026;2023-06-19T08:06:53;100490.32;;;31.09;28.37
69239;BME280;56349;51.816;-0.026;2023-06-19T08:09:19;100495.94;;;31.11;28.36
69239;BME280;56349;51.816;-0.026;2023-06-19T08:11:45;100491.34;;;31.12;28.41
69239;BME280;56349;51.816;-0.026;2023-06-19T08:14:10;100495.42;;;31.21;28.45
69239;BME280;56349;51.816;-0.026;2023-06-19T08:16:36;100497.60;;;31.27;28.32
69239;BME280;56349;51.816;-0.026;2023-06-19T08:19:02;100499.16;;;31.28;28.26
69239;BME280;56349;51.816;-0.026;2023-06-19T08:21:27;100495.72;;;31.31;28.15
69239;BME280;56349;51.816;-0.026;2023-06-19T08:23:53;100492.66;;;31.36;28.09
69239;BME280;56349;51.816;-0.026;2023-06-19T08:26:19;100491.65;;;31.40;28.02
69239;BME280;56349;51.816;-0.026;2023-06-19T08:28:45;100486.15;;;31.18;27.93
69239;BME280;56349;51.816;-0.026;2023-06-19T08:31:11;100486.47;;;31.43;27.88
69239;BME280;56349;51.816;-0.026;2023-06-19T08:33:37;100484.83;;;31.27;27.80
69239;BME280;56349;51.816;-0.026;2023-06-19T08:36:04;100486.29;;;31.55;27.71
69239;BME280;56349;51.816;-0.026;2023-06-19T08:38:29;100483.01;;;31.34;27.61
69239;BME280;56349;51.816;-0.026;2023-06-19T08:40:55;100483.57;;;31.47;27.57
69239;BME280;56349;51.816;-0.026;2023-06-19T08:43:20;100482.59;;;31.27;27.67
69239;BME280;56349;51.816;-0.026;2023-06-19T08:45:53;100483.97;;;30.99;27.83
69239;BME280;56349;51.816;-0.026;2023-06-19T08:48:14;100483.83;;;31.19;28.10
69239;BME280;56349;51.816;-0.026;2023-06-19T08:50:37;100478.68;;;30.89;28.31
69239;BME280;56349;51.816;-0.026;2023-06-19T08:53:03;100482.76;;;30.61;28.61
69239;BME280;56349;51.816;-0.026;2023-06-19T08:55:29;100484.39;;;30.42;28.89
69239;BME280;56349;51.816;-0.026;2023-06-19T08:57:55;100485.52;;;30.30;29.05
69239;BME280;56349;51.816;-0.026;2023-06-19T09:00:24;100485.77;;;30.24;29.12
69239;BME280;56349;51.816;-0.026;2023-06-19T09:02:46;100489.28;;;30.44;29.18
69239;BME280;56349;51.816;-0.026;2023-06-19T09:05:13;100490.58;;;30.24;29.27
69239;BME280;56349;51.816;-0.026;2023-06-19T09:07:37;100488.48;;;30.29;29.16
69239;BME280;56349;51.816;-0.026;2023-06-19T09:12:28;100489.66;;;30.66;28.80
69239;BME280;56349;51.816;-0.026;2023-06-19T09:14:54;100493.98;;;30.57;28.69
69239;BME280;56349;51.816;-0.026;2023-06-19T09:17:20;100494.81;;;30.65;28.36
69239;BME280;56349;51.816;-0.026;2023-06-19T09:19:47;100494.89;;;30.49;28.00
69239;BME280;56349;51.816;-0.026;2023-06-19T09:22:10;100492.73;;;30.78;27.53
69239;BME280;56349;51.816;-0.026;2023-06-19T09:24:37;100494.55;;;30.73;27.30
69239;BME280;56349;51.816;-0.026;2023-06-19T09:27:07;100498.98;;;30.37;27.23
69239;BME280;56349;51.816;-0.026;2023-06-19T09:29:27;100504.41;;;30.59;27.27
69239;BME280;56349;51.816;-0.026;2023-06-19T09:31:53;100504.52;;;30.13;27.17
69239;BME280;56349;51.816;-0.026;2023-06-19T09:34:20;100502.78;;;30.43;27.11
69239;BME280;56349;51.816;-0.026;2023-06-19T09:36:46;100501.86;;;30.54;27.06
69239;BME280;56349;51.816;-0.026;2023-06-19T09:39:13;100504.65;;;30.62;27.00
69239;BME280;56349;51.816;-0.026;2023-06-19T09:41:39;100501.79;;;30.72;26.80
69239;BME280;56349;51.816;-0.026;2023-06-19T09:44:05;100505.78;;;30.84;26.72
69239;BME280;56349;51.816;-0.026;2023-06-19T09:46:30;100511.55;;;30.74;26.65
69239;BME280;56349;51.816;-0.026;2023-06-19T09:48:54;100514.03;;;31.07;26.48
69239;BME280;56349;51.816;-0.026;2023-06-19T09:51:20;100516.27;;;30.92;26.08
69239;BME280;56349;51.816;-0.026;2023-06-19T09:53:44;100513.51;;;30.96;25.66
69239;BME280;56349;51.816;-0.026;2023-06-19T09:56:10;100510.04;;;30.98;25.43
69239;BME280;56349;51.816;-0.026;2023-06-19T09:58:35;100511.88;;;31.02;25.39
69239;BME280;56349;51.816;-0.026;2023-06-19T10:01:01;100507.91;;;31.04;25.36
69239;BME280;56349;51.816;-0.026;2023-06-19T10:03:31;100513.54;;;31.09;25.36
69239;BME280;56349;51.816;-0.026;2023-06-19T10:05:57;100512.84;;;31.16;25.18
69239;BME280;56349;51.816;-0.026;2023-06-19T10:08:26;100514.44;;;31.21;25.01
69239;BME280;56349;51.816;-0.026;2023-06-19T10:10:47;100517.61;;;31.46;24.93
69239;BME280;56349;51.816;-0.026;2023-06-19T10:13:13;100513.25;;;31.15;24.76
69239;BME280;56349;51.816;-0.026;2023-06-19T10:15:34;100507.21;;;31.00;24.72
69239;BME280;56349;51.816;-0.026;2023-06-19T10:18:01;100507.20;;;31.00;24.80
69239;BME280;56349;51.816;-0.026;2023-06-19T10:20:28;100503.24;;;30.98;24.97
69239;BME280;56349;51.816;-0.026;2023-06-19T10:22:52;100499.85;;;30.40;25.30
69239;BME280;56349;51.816;-0.026;2023-06-19T10:25:20;100503.56;;;30.37;25.40
69239;BME280;56349;51.816;-0.026;2023-06-19T10:27:42;100504.71;;;30.12;25.51
69239;BME280;56349;51.816;-0.026;2023-06-19T10:30:16;100507.73;;;30.17;25.67
69239;BME280;56349;51.816;-0.026;2023-06-19T10:32:34;100504.85;;;30.08;25.90
69239;BME280;56349;51.816;-0.026;2023-06-19T10:35:00;100507.98;;;29.88;26.11
69239;BME280;56349;51.816;-0.026;2023-06-19T10:37:32;100510.63;;;30.15;26.17
69239;BME280;56349;51.816;-0.026;2023-06-19T10:39:51;100510.01;;;30.22;26.22
69239;BME280;56349;51.816;-0.026;2023-06-19T10:42:17;100512.46;;;30.33;26.30
69239;BME280;56349;51.816;-0.026;2023-06-19T10:44:43;100516.37;;;30.49;26.34
69239;BME280;56349;51.816;-0.026;2023-06-19T10:47:09;100521.79;;;30.41;26.42
69239;BME280;56349;51.816;-0.026;2023-06-19T10:49:35;100515.18;;;30.58;26.38
69239;BME280;56349;51.816;-0.026;2023-06-19T10:52:00;100512.16;;;30.73;26.40
69239;BME280;56349;51.816;-0.026;2023-06-19T10:54:28;100506.46;;;30.86;26.40
69239;BME280;56349;51.816;-0.026;2023-06-19T10:56:52;100508.38;;;30.97;26.37
69239;BME280;56349;51.816;-0.026;2023-06-19T10:59:18;100507.46;;;30.81;26.37
69239;BME280;56349;51.816;-0.026;2023-06-19T11:01:46;100509.60;;;30.71;26.34
69239;BME280;56349;51.816;-0.026;2023-06-19T11:04:10;100503.77;;;30.78;26.33
69239;BME280;56349;51.816;-0.026;2023-06-19T11:06:35;100492.41;;;31.34;26.31
69239;BME280;56349;51.816;-0.026;2023-06-19T11:09:00;100484.89;;;30.92;26.28
69239;BME280;56349;51.816;-0.026;2023-06-19T11:11:36;100491.32;;;31.22;26.26
69239;BME280;56349;51.816;-0.026;2023-06-19T11:13:51;100497.18;;;31.08;26.20
69239;BME280;56349;51.816;-0.026;2023-06-19T11:16:17;100497.24;;;31.18;26.15
69239;BME280;56349;51.816;-0.026;2023-06-19T11:18:43;100493.97;;;31.25;26.09
69239;BME280;56349;51.816;-0.026;2023-06-19T11:21:09;100485.22;;;31.09;26.06
69239;BME280;56349;51.816;-0.026;2023-06-19T11:23:35;100478.28;;;31.35;26.05
69239;BME280;56349;51.816;-0.026;2023-06-19T11:26:03;100483.18;;;31.17;26.03
69239;BME280;56349;51.816;-0.026;2023-06-19T11:28:27;100482.98;;;31.46;25.99
69239;BME280;56349;51.816;-0.026;2023-06-19T11:30:58;100478.75;;;31.53;25.93
69239;BME280;56349;51.816;-0.026;2023-06-19T11:33:18;100485.29;;;31.57;25.87
69239;BME280;56349;51.816;-0.026;2023-06-19T11:35:47;100483.54;;;31.64;25.85
69239;BME280;56349;51.816;-0.026;2023-06-19T11:38:08;100479.26;;;31.47;25.82
69239;BME280;56349;51.816;-0.026;2023-06-19T11:40:39;100483.61;;;31.71;25.79
69239;BME280;56349;51.816;-0.026;2023-06-19T11:42:59;100475.77;;;31.75;25.73
69239;BME280;56349;51.816;-0.026;2023-06-19T11:45:25;100472.84;;;31.78;25.70
69239;BME280;56349;51.816;-0.026;2023-06-19T11:47:51;100472.17;;;31.77;25.70
69239;BME280;56349;51.816;-0.026;2023-06-19T11:50:17;100477.01;;;31.47;25.66
69239;BME280;56349;51.816;-0.026;2023-06-19T11:52:44;100468.20;;;31.52;25.69
69239;BME280;56349;51.816;-0.026;2023-06-19T11:55:09;100473.54;;;31.28;25.77
69239;BME280;56349;51.816;-0.026;2023-06-19T11:57:34;100472.52;;;30.98;25.95
69239;BME280;56349;51.816;-0.026;2023-06-19T12:00:00;100474.64;;;30.92;26.15
69239;BME280;56349;51.816;-0.026;2023-06-19T12:02:26;100474.72;;;30.66;26.40
69239;BME280;56349;51.816;-0.026;2023-06-19T12:04:52;100468.47;;;30.75;26.63
69239;BME280;56349;51.816;-0.026;2023-06-19T12:07:18;100465.90;;;30.62;26.80
69239;BME280;56349;51.816;-0.026;2023-06-19T12:09:43;100473.56;;;30.32;26.91
69239;BME280;56349;51.816;-0.026;2023-06-19T12:12:09;100470.00;;;30.60;26.98
69239;BME280;56349;51.816;-0.026;2023-06-19T12:14:34;100470.31;;;30.66;27.00
69239;BME280;56349;51.816;-0.026;2023-06-19T12:17:00;100473.75;;;30.73;26.98
69239;BME280;56349;51.816;-0.026;2023-06-19T12:19:27;100472.02;;;30.81;26.95
69239;BME280;56349;51.816;-0.026;2023-06-19T12:21:52;100470.86;;;30.93;26.91
69239;BME280;56349;51.816;-0.026;2023-06-19T12:24:18;100465.39;;;31.05;26.81
69239;BME280;56349;51.816;-0.026;2023-06-19T12:26:44;100473.85;;;30.68;26.77
69239;BME280;56349;51.816;-0.026;2023-06-19T12:29:10;100475.22;;;30.78;26.72
69239;BME280;56349;51.816;-0.026;2023-06-19T12:31:35;100466.73;;;31.10;26.61
69239;BME280;56349;51.816;-0.026;2023-06-19T12:34:00;100469.07;;;30.98;26.56